createdAt,value
2018-05-26T00:09:10.261Z,13.71
2018-05-26T00:20:05.337Z,13.52
2018-05-26T00:31:09.088Z,13.53
2018-05-26T00:42:12.256Z,13.50
2018-05-26T00:53:11.080Z,13.28
2018-05-26T01:04:14.113Z,13.37
2018-05-26T01:15:01.016Z,13.32
2018-05-26T01:26:02.582Z,13.18
2018-05-26T01:37:00.621Z,12.88
2018-05-26T01:48:04.271Z,12.91
2018-05-26T01:59:06.724Z,12.85
2018-05-26T02:10:07.460Z,12.86
2018-05-26T02:21:05.000Z,12.53
2018-05-26T02:32:08.824Z,12.44
2018-05-26T02:43:05.563Z,12.49
2018-05-26T02:54:03.120Z,12.59
2018-05-26T03:05:01.300Z,12.33
2018-05-26T03:16:03.665Z,12.33
2018-05-26T03:27:04.456Z,12.55
2018-05-26T03:38:05.305Z,12.60
2018-05-26T03:49:04.336Z,12.46
2018-05-26T04:00:00.716Z,12.67
2018-05-26T04:11:00.331Z,12.85
2018-05-26T04:22:08.934Z,13.17
2018-05-26T04:33:08.154Z,13.38
2018-05-26T04:44:07.664Z,13.62
2018-05-26T04:55:06.541Z,13.89
2018-05-26T05:06:08.888Z,14.11
2018-05-26T05:17:12.415Z,14.50
2018-05-26T05:28:12.139Z,14.75
2018-05-26T05:39:15.997Z,15.12
2018-05-26T05:50:17.882Z,15.55
2018-05-26T06:01:17.773Z,15.92
2018-05-26T06:12:20.303Z,16.23
2018-05-26T06:23:16.335Z,16.74
2018-05-26T06:34:12.637Z,17.10
2018-05-26T06:45:12.603Z,17.39
2018-05-26T06:56:05.228Z,17.79
2018-05-26T07:07:00.392Z,18.32
2018-05-26T07:17:51.851Z,18.57
2018-05-26T07:28:46.225Z,18.82
2018-05-26T07:39:45.919Z,19.21
2018-05-26T07:50:42.988Z,19.58
2018-05-26T08:01:43.624Z,19.72
2018-05-26T08:12:45.826Z,20.01
2018-05-26T08:23:43.943Z,20.12
2018-05-26T08:34:46.149Z,20.34
2018-05-26T08:45:41.269Z,20.80
2018-05-26T08:56:44.810Z,21.06
2018-05-26T09:07:48.904Z,21.23
2018-05-26T09:18:26.314Z,21.74
2018-05-26T09:29:21.678Z,21.59
2018-05-26T09:40:20.111Z,22.05
2018-05-26T09:51:17.266Z,22.32
2018-05-26T10:02:20.498Z,22.52
2018-05-26T10:13:24.748Z,22.96
2018-05-26T10:24:21.744Z,23.29
2018-05-26T10:35:25.613Z,23.46
2018-05-26T10:46:28.729Z,23.95
2018-05-26T10:57:27.276Z,23.22
2018-05-26T11:08:31.165Z,24.94
2018-05-26T11:19:32.578Z,25.79
2018-05-26T11:30:37.388Z,25.59
2018-05-26T11:41:37.653Z,25.65
2018-05-26T11:52:37.799Z,25.10
2018-05-26T12:03:36.445Z,24.64
2018-05-26T12:14:39.229Z,24.93
2018-05-26T12:25:38.924Z,24.79
2018-05-26T12:36:42.312Z,25.09
2018-05-26T12:47:45.019Z,24.23
2018-05-26T12:58:47.261Z,23.35
2018-05-26T13:09:42.923Z,23.14
2018-05-26T13:20:43.710Z,27.67
2018-05-26T13:31:43.667Z,24.69
2018-05-26T13:42:46.822Z,28.87
2018-05-26T13:53:29.935Z,31.05
2018-05-26T14:04:18.928Z,29.16
2018-05-26T14:15:02.826Z,29.47
2018-05-26T14:26:09.232Z,28.84
2018-05-26T14:36:48.724Z,31.20
2018-05-26T14:47:32.349Z,29.95
2018-05-26T14:58:20.833Z,29.85
2018-05-26T15:09:01.928Z,29.62
2018-05-26T15:19:47.992Z,30.05
2018-05-26T15:30:51.872Z,27.69
2018-05-26T15:41:51.273Z,26.08
2018-05-26T15:52:51.582Z,25.86
2018-05-26T16:03:52.050Z,25.35
2018-05-26T16:14:54.564Z,24.86
2018-05-26T16:25:52.264Z,24.59
2018-05-26T16:36:55.480Z,24.15
2018-05-26T16:47:54.140Z,24.11
2018-05-26T16:58:53.337Z,24.00
2018-05-26T17:09:50.548Z,23.67
2018-05-26T17:20:47.907Z,23.49
2018-05-26T17:31:44.944Z,23.15
2018-05-26T17:42:47.876Z,22.81
2018-05-26T17:53:48.605Z,22.37
2018-05-26T18:04:46.858Z,21.91
2018-05-26T18:15:43.796Z,21.41
2018-05-26T18:26:43.444Z,20.94
2018-05-26T18:37:42.312Z,20.37
2018-05-26T18:48:40.580Z,20.03
2018-05-26T18:59:37.323Z,19.68
2018-05-26T19:10:30.304Z,19.32
2018-05-26T19:21:33.279Z,18.94
2018-05-26T19:32:33.793Z,18.69
2018-05-26T19:43:35.671Z,18.29
2018-05-26T19:54:33.216Z,18.28
2018-05-26T20:05:34.151Z,18.02
2018-05-26T20:16:30.951Z,17.74
2018-05-26T20:27:32.561Z,17.51
2018-05-26T20:38:31.364Z,17.33
2018-05-26T20:49:28.305Z,17.29
2018-05-26T21:00:29.572Z,17.20
2018-05-26T21:11:31.495Z,16.95
2018-05-26T21:22:33.962Z,16.85
2018-05-26T21:33:33.217Z,17.02
2018-05-26T21:44:35.243Z,17.11
2018-05-26T21:55:37.052Z,16.88
2018-05-26T22:06:38.965Z,16.82
2018-05-26T22:17:40.580Z,16.63
2018-05-26T22:28:38.539Z,16.52
2018-05-26T22:39:41.729Z,16.41
2018-05-26T22:50:44.757Z,16.34
2018-05-26T23:01:47.030Z,16.10
2018-05-26T23:12:44.676Z,16.06
2018-05-26T23:23:47.516Z,15.83
2018-05-26T23:34:48.768Z,15.79
2018-05-26T23:45:49.913Z,15.70
2018-05-26T23:56:50.439Z,15.66
